Terminal Aerodrome Forecast
Issued by NWS Lake Charles, LA

Home | Current Version | Previous Version | Text Only | Print | Product List | Glossary On
Versions: 1 2 3 4 5 6 7 8 9 10 11 12 13
000
FTUS44 KLCH 251130
TAFAEX
TAF
KAEX 251130Z 2512/2612 00000KT 4SM BR FEW070 SCT250
     FM251400 10004KT P6SM SCT015 SCT250
     FM251700 11006KT P6SM VCTS SCT035CB BKN200
      TEMPO 2518/2522 VRB12G25KT 2SM +TSRA BKN025CB
     FM260100 VRB03KT P6SM FEW050 BKN150=

USA.gov is the U.S. government's official web portal to all federal, state and local government web resources and services.